sensor_id;sensor_type;location;lat;lon;timestamp;pressure;altitude;pressure_sealevel;temperature;humidity
44127;BME280;29786;50.798;7.302;2023-04-28T00:00:32;98950;;;12.21;62.56
44127;BME280;29786;50.798;7.302;2023-04-28T00:05:29;98950;;;11.98;64.41
44127;BME280;29786;50.798;7.302;2023-04-28T00:10:25;98940;;;12.11;64.55
44127;BME280;29786;50.798;7.302;2023-04-28T00:16:36;98930;;;12.22;62.87
44127;BME280;29786;50.798;7.302;2023-04-28T00:21:33;98920;;;12.25;63.41
44127;BME280;29786;50.798;7.302;2023-04-28T00:26:29;98920;;;12.14;64.06
44127;BME280;29786;50.798;7.302;2023-04-28T00:31:26;98910;;;12.2;63.22
44127;BME280;29786;50.798;7.302;2023-04-28T00:37:37;98910;;;12.25;61.68
44127;BME280;29786;50.798;7.302;2023-04-28T00:42:33;98910;;;12.28;61.64
44127;BME280;29786;50.798;7.302;2023-04-28T00:47:30;98910;;;12.32;62.01
44127;BME280;29786;50.798;7.302;2023-04-28T00:52:26;98900;;;12.06;62.35
44127;BME280;29786;50.798;7.302;2023-04-28T00:58:37;98900;;;11.92;64.76
44127;BME280;29786;50.798;7.302;2023-04-28T01:03:34;98880;;;11.99;64.72
44127;BME280;29786;50.798;7.302;2023-04-28T01:08:30;98870;;;11.8;66.77
44127;BME280;29786;50.798;7.302;2023-04-28T01:13:27;98870;;;11.95;66.2
44127;BME280;29786;50.798;7.302;2023-04-28T01:19:37;98860;;;11.8;66.33
44127;BME280;29786;50.798;7.302;2023-04-28T01:24:33;98850;;;11.67;67.72
44127;BME280;29786;50.798;7.302;2023-04-28T01:29:30;98850;;;11.73;66.91
44127;BME280;29786;50.798;7.302;2023-04-28T01:34:26;98860;;;11.87;65.59
44127;BME280;29786;50.798;7.302;2023-04-28T01:40:37;98860;;;11.97;65.67
44127;BME280;29786;50.798;7.302;2023-04-28T01:45:34;98860;;;11.92;69.52
44127;BME280;29786;50.798;7.302;2023-04-28T01:50:30;98860;;;11.72;78.25
44127;BME280;29786;50.798;7.302;2023-04-28T01:55:27;98850;;;11.69;80.45
44127;BME280;29786;50.798;7.302;2023-04-28T02:01:37;98840;;;11.66;81.24
44127;BME280;29786;50.798;7.302;2023-04-28T02:06:34;98840;;;11.53;82.33
44127;BME280;29786;50.798;7.302;2023-04-28T02:11:31;98840;;;11.62;84.01
44127;BME280;29786;50.798;7.302;2023-04-28T02:16:27;98840;;;11.63;82.78
44127;BME280;29786;50.798;7.302;2023-04-28T02:22:38;98860;;;11.66;81.24
44127;BME280;29786;50.798;7.302;2023-04-28T02:27:34;98850;;;11.61;81.98
44127;BME280;29786;50.798;7.302;2023-04-28T02:32:31;98840;;;11.58;82.74
44127;BME280;29786;50.798;7.302;2023-04-28T02:37:27;98840;;;11.5;84.73
44127;BME280;29786;50.798;7.302;2023-04-28T02:43:38;98840;;;11.36;87.91
44127;BME280;29786;50.798;7.302;2023-04-28T02:48:35;98830;;;11.43;87.45
44127;BME280;29786;50.798;7.302;2023-04-28T02:53:31;98820;;;11.47;88.38
44127;BME280;29786;50.798;7.302;2023-04-28T02:58:28;98820;;;11.57;86.89
44127;BME280;29786;50.798;7.302;2023-04-28T03:04:38;98830;;;11.59;87.26
44127;BME280;29786;50.798;7.302;2023-04-28T03:09:35;98830;;;11.5;88.8
44127;BME280;29786;50.798;7.302;2023-04-28T03:14:31;98820;;;11.46;91.32
44127;BME280;29786;50.798;7.302;2023-04-28T03:19:28;98820;;;11.42;95.24
44127;BME280;29786;50.798;7.302;2023-04-28T03:25:38;98820;;;11.14;100
44127;BME280;29786;50.798;7.302;2023-04-28T03:30:35;98800;;;11.09;100
44127;BME280;29786;50.798;7.302;2023-04-28T03:35:32;98780;;;10.9;100
44127;BME280;29786;50.798;7.302;2023-04-28T03:40:28;98800;;;10.88;100
44127;BME280;29786;50.798;7.302;2023-04-28T03:45:25;98790;;;10.78;100
44127;BME280;29786;50.798;7.302;2023-04-28T03:51:35;98790;;;10.71;100
44127;BME280;29786;50.798;7.302;2023-04-28T03:56:32;98760;;;10.66;100
44127;BME280;29786;50.798;7.302;2023-04-28T04:01:28;98780;;;10.74;100
44127;BME280;29786;50.798;7.302;2023-04-28T04:06:25;98770;;;10.67;100
44127;BME280;29786;50.798;7.302;2023-04-28T04:12:36;98760;;;10.29;100
44127;BME280;29786;50.798;7.302;2023-04-28T04:17:32;98730;;;9.96;100
44127;BME280;29786;50.798;7.302;2023-04-28T04:22:29;98730;;;10;100
44127;BME280;29786;50.798;7.302;2023-04-28T04:28:39;98720;;;10.04;100
44127;BME280;29786;50.798;7.302;2023-04-28T04:33:36;98730;;;9.93;100
44127;BME280;29786;50.798;7.302;2023-04-28T04:43:29;98710;;;9.97;100
44127;BME280;29786;50.798;7.302;2023-04-28T04:48:25;98720;;;9.99;100
44127;BME280;29786;50.798;7.302;2023-04-28T04:54:36;98730;;;10.14;100
44127;BME280;29786;50.798;7.302;2023-04-28T04:59:33;98720;;;10.35;100
44127;BME280;29786;50.798;7.302;2023-04-28T05:04:29;98720;;;10.09;100
44127;BME280;29786;50.798;7.302;2023-04-28T05:09:26;98740;;;10.13;100
44127;BME280;29786;50.798;7.302;2023-04-28T05:15:36;98760;;;10.47;100
44127;BME280;29786;50.798;7.302;2023-04-28T05:20:33;98760;;;10.51;100
44127;BME280;29786;50.798;7.302;2023-04-28T05:25:29;98760;;;10.53;100
44127;BME280;29786;50.798;7.302;2023-04-28T05:30:26;98760;;;10.53;100
44127;BME280;29786;50.798;7.302;2023-04-28T05:36:37;98760;;;10.46;100
44127;BME280;29786;50.798;7.302;2023-04-28T05:41:34;98750;;;10.43;100
44127;BME280;29786;50.798;7.302;2023-04-28T05:46:30;98750;;;10.49;100
44127;BME280;29786;50.798;7.302;2023-04-28T05:51:26;98740;;;10.44;100
44127;BME280;29786;50.798;7.302;2023-04-28T05:57:37;98730;;;10.53;100
44127;BME280;29786;50.798;7.302;2023-04-28T06:02:33;98730;;;10.65;100
44127;BME280;29786;50.798;7.302;2023-04-28T06:07:30;98730;;;10.48;100
44127;BME280;29786;50.798;7.302;2023-04-28T06:12:26;98720;;;10.57;100
44127;BME280;29786;50.798;7.302;2023-04-28T06:18:37;98710;;;10.72;100
44127;BME280;29786;50.798;7.302;2023-04-28T06:23:34;98710;;;10.66;100
44127;BME280;29786;50.798;7.302;2023-04-28T06:28:30;98710;;;10.66;100
44127;BME280;29786;50.798;7.302;2023-04-28T06:33:27;98700;;;10.73;100
44127;BME280;29786;50.798;7.302;2023-04-28T06:39:38;98700;;;11.12;100
44127;BME280;29786;50.798;7.302;2023-04-28T06:44:34;98710;;;11.26;100
44127;BME280;29786;50.798;7.302;2023-04-28T06:49:30;98720;;;11.08;100
44127;BME280;29786;50.798;7.302;2023-04-28T06:54:27;98720;;;11.05;100
44127;BME280;29786;50.798;7.302;2023-04-28T07:00:38;98710;;;11.15;100
44127;BME280;29786;50.798;7.302;2023-04-28T07:05:34;98720;;;11.29;100
44127;BME280;29786;50.798;7.302;2023-04-28T07:10:31;98710;;;11.67;100
44127;BME280;29786;50.798;7.302;2023-04-28T07:15:27;98720;;;12.03;100
44127;BME280;29786;50.798;7.302;2023-04-28T07:21:38;98720;;;12.25;100
44127;BME280;29786;50.798;7.302;2023-04-28T07:26:34;98720;;;12.36;100
44127;BME280;29786;50.798;7.302;2023-04-28T07:31:31;98720;;;12.88;100
44127;BME280;29786;50.798;7.302;2023-04-28T07:36:27;98730;;;12.86;100
44127;BME280;29786;50.798;7.302;2023-04-28T07:42:38;98730;;;13.54;100
44127;BME280;29786;50.798;7.302;2023-04-28T07:47:35;98730;;;13.72;100
44127;BME280;29786;50.798;7.302;2023-04-28T07:52:31;98730;;;13.73;100
44127;BME280;29786;50.798;7.302;2023-04-28T07:57:28;98720;;;13.8;100
44127;BME280;29786;50.798;7.302;2023-04-28T08:03:38;98720;;;13.87;100
44127;BME280;29786;50.798;7.302;2023-04-28T08:08:35;98730;;;13.56;100
44127;BME280;29786;50.798;7.302;2023-04-28T08:13:31;98710;;;13.74;100
44127;BME280;29786;50.798;7.302;2023-04-28T08:18:28;98730;;;13.99;100
44127;BME280;29786;50.798;7.302;2023-04-28T08:24:39;98740;;;14.6;100
44127;BME280;29786;50.798;7.302;2023-04-28T08:29:35;98740;;;14.8;100
44127;BME280;29786;50.798;7.302;2023-04-28T08:34:32;98720;;;15.25;100
44127;BME280;29786;50.798;7.302;2023-04-28T08:39:28;98720;;;15.92;100
44127;BME280;29786;50.798;7.302;2023-04-28T08:44:25;98720;;;16.52;100
44127;BME280;29786;50.798;7.302;2023-04-28T08:50:35;98730;;;17.03;90.96
44127;BME280;29786;50.798;7.302;2023-04-28T08:55:32;98730;;;16.62;91.69
44127;BME280;29786;50.798;7.302;2023-04-28T09:00:29;98740;;;17.25;93.23
44127;BME280;29786;50.798;7.302;2023-04-28T09:05:25;98740;;;17.18;90.85
44127;BME280;29786;50.798;7.302;2023-04-28T09:11:36;98740;;;16.84;93.9
44127;BME280;29786;50.798;7.302;2023-04-28T09:21:29;98740;;;16.31;100
44127;BME280;29786;50.798;7.302;2023-04-28T09:26:25;98730;;;16.53;100
44127;BME280;29786;50.798;7.302;2023-04-28T09:32:36;98730;;;16.08;100
44127;BME280;29786;50.798;7.302;2023-04-28T09:37:33;98730;;;15.49;100
44127;BME280;29786;50.798;7.302;2023-04-28T09:42:37;98730;;;15.48;100
44127;BME280;29786;50.798;7.302;2023-04-28T09:53:36;98730;;;15.37;100
44127;BME280;29786;50.798;7.302;2023-04-28T09:58:33;98720;;;15.76;100
44127;BME280;29786;50.798;7.302;2023-04-28T10:03:30;98720;;;16.7;100
44127;BME280;29786;50.798;7.302;2023-04-28T10:08:26;98720;;;16.45;100
44127;BME280;29786;50.798;7.302;2023-04-28T10:14:37;98730;;;15.92;100
44127;BME280;29786;50.798;7.302;2023-04-28T10:18:27;98720;;;15.76;100
44127;BME280;29786;50.798;7.302;2023-04-28T10:24:49;98710;;;17.24;100
44127;BME280;29786;50.798;7.302;2023-04-28T10:29:35;98710;;;17.14;100
44127;BME280;29786;50.798;7.302;2023-04-28T10:34:31;98720;;;16.43;100
44127;BME280;29786;50.798;7.302;2023-04-28T10:39:27;98710;;;16.62;100
44127;BME280;29786;50.798;7.302;2023-04-28T10:46:02;98710;;;17.29;100
44127;BME280;29786;50.798;7.302;2023-04-28T10:50:35;98710;;;18.34;100
44127;BME280;29786;50.798;7.302;2023-04-28T10:55:32;98710;;;17.95;100
44127;BME280;29786;50.798;7.302;2023-04-28T11:00:28;98710;;;17.85;100
44127;BME280;29786;50.798;7.302;2023-04-28T11:06:39;98700;;;17.69;100
44127;BME280;29786;50.798;7.302;2023-04-28T11:11:35;98700;;;17.92;100
44127;BME280;29786;50.798;7.302;2023-04-28T11:16:31;98680;;;17.64;100
44127;BME280;29786;50.798;7.302;2023-04-28T11:21:28;98700;;;18.57;100
44127;BME280;29786;50.798;7.302;2023-04-28T11:26:25;98690;;;19.26;100
44127;BME280;29786;50.798;7.302;2023-04-28T11:32:35;98690;;;18.7;100
44127;BME280;29786;50.798;7.302;2023-04-28T11:37:32;98680;;;18.86;100
44127;BME280;29786;50.798;7.302;2023-04-28T11:42:28;98700;;;17.95;100
44127;BME280;29786;50.798;7.302;2023-04-28T11:48:39;98690;;;17.54;100
44127;BME280;29786;50.798;7.302;2023-04-28T11:53:39;98690;;;18.29;100
44127;BME280;29786;50.798;7.302;2023-04-28T11:58:32;98670;;;20.58;96.32
44127;BME280;29786;50.798;7.302;2023-04-28T12:03:28;98670;;;21.3;91.31
44127;BME280;29786;50.798;7.302;2023-04-28T12:08:27;98670;;;22.35;81.93
44127;BME280;29786;50.798;7.302;2023-04-28T12:14:53;98660;;;24.94;61.57
44127;BME280;29786;50.798;7.302;2023-04-28T12:19:41;98660;;;24.62;63.72
44127;BME280;29786;50.798;7.302;2023-04-28T12:24:29;98650;;;24.05;68.24
44127;BME280;29786;50.798;7.302;2023-04-28T12:29:41;98640;;;23.81;70.41
44127;BME280;29786;50.798;7.302;2023-04-28T12:35:36;98650;;;23.25;71.9
44127;BME280;29786;50.798;7.302;2023-04-28T12:40:33;98650;;;24.85;60.05
44127;BME280;29786;50.798;7.302;2023-04-28T12:45:29;98650;;;22.95;69.38
44127;BME280;29786;50.798;7.302;2023-04-28T12:50:26;98640;;;24.82;59.66
44127;BME280;29786;50.798;7.302;2023-04-28T12:56:36;98640;;;24.89;60.68
44127;BME280;29786;50.798;7.302;2023-04-28T13:01:33;98620;;;26.72;54.58
44127;BME280;29786;50.798;7.302;2023-04-28T13:06:29;98620;;;28.6;49.74
44127;BME280;29786;50.798;7.302;2023-04-28T13:11:26;98620;;;26.98;52.67
44127;BME280;29786;50.798;7.302;2023-04-28T13:17:37;98620;;;26.5;53.94
44127;BME280;29786;50.798;7.302;2023-04-28T13:22:33;98610;;;29.55;48.66
44127;BME280;29786;50.798;7.302;2023-04-28T13:27:30;98600;;;29.46;46.66
44127;BME280;29786;50.798;7.302;2023-04-28T13:32:26;98580;;;29;47.35
44127;BME280;29786;50.798;7.302;2023-04-28T13:38:37;98580;;;30.01;46.57
44127;BME280;29786;50.798;7.302;2023-04-28T13:43:33;98570;;;31.44;41.37
44127;BME280;29786;50.798;7.302;2023-04-28T13:48:30;98560;;;31.17;39.87
44127;BME280;29786;50.798;7.302;2023-04-28T13:53:27;98570;;;30.25;41.13
44127;BME280;29786;50.798;7.302;2023-04-28T13:59:37;98560;;;29.2;45.26
44127;BME280;29786;50.798;7.302;2023-04-28T14:04:34;98570;;;25.04;53.56
44127;BME280;29786;50.798;7.302;2023-04-28T14:09:30;98550;;;25.26;56.91
44127;BME280;29786;50.798;7.302;2023-04-28T14:20:37;98550;;;30.11;42.61
44127;BME280;29786;50.798;7.302;2023-04-28T14:25:34;98540;;;31.57;38.49
44127;BME280;29786;50.798;7.302;2023-04-28T14:30:30;98530;;;31.11;38.78
44127;BME280;29786;50.798;7.302;2023-04-28T14:35:27;98520;;;33.56;36.62
44127;BME280;29786;50.798;7.302;2023-04-28T14:41:38;98510;;;30.12;38.67
44127;BME280;29786;50.798;7.302;2023-04-28T14:46:34;98540;;;23.79;52.16
44127;BME280;29786;50.798;7.302;2023-04-28T14:51:31;98530;;;23.48;57.89
44127;BME280;29786;50.798;7.302;2023-04-28T14:56:27;98530;;;22.54;63.51
44127;BME280;29786;50.798;7.302;2023-04-28T15:02:38;98520;;;26.63;48.98
44127;BME280;29786;50.798;7.302;2023-04-28T15:07:34;98530;;;23.29;58.47
44127;BME280;29786;50.798;7.302;2023-04-28T15:12:31;98520;;;21.18;69.29
44127;BME280;29786;50.798;7.302;2023-04-28T15:17:27;98530;;;20.8;73.46
44127;BME280;29786;50.798;7.302;2023-04-28T15:23:38;98530;;;21.41;73.97
44127;BME280;29786;50.798;7.302;2023-04-28T15:28:35;98550;;;21;75.14
44127;BME280;29786;50.798;7.302;2023-04-28T15:33:31;98550;;;23.15;66.75
44127;BME280;29786;50.798;7.302;2023-04-28T15:38:28;98540;;;25.7;53.33
44127;BME280;29786;50.798;7.302;2023-04-28T15:44:38;98560;;;20.92;66.73
44127;BME280;29786;50.798;7.302;2023-04-28T15:49:35;98560;;;20.35;66.94
44127;BME280;29786;50.798;7.302;2023-04-28T15:54:31;98550;;;24.71;53.47
44127;BME280;29786;50.798;7.302;2023-04-28T15:59:28;98570;;;25.79;48.4
44127;BME280;29786;50.798;7.302;2023-04-28T16:04:25;98580;;;22.67;55.47
44127;BME280;29786;50.798;7.302;2023-04-28T16:10:35;98580;;;24.55;50.49
44127;BME280;29786;50.798;7.302;2023-04-28T16:15:32;98560;;;24.05;50.73
44127;BME280;29786;50.798;7.302;2023-04-28T16:20:28;98590;;;22.65;54.03
44127;BME280;29786;50.798;7.302;2023-04-28T16:26:39;98610;;;23.98;52.02
44127;BME280;29786;50.798;7.302;2023-04-28T16:31:36;98600;;;23.23;52.89
44127;BME280;29786;50.798;7.302;2023-04-28T16:36:32;98600;;;23.33;53.95
44127;BME280;29786;50.798;7.302;2023-04-28T16:41:28;98640;;;20.34;65.57
44127;BME280;29786;50.798;7.302;2023-04-28T16:46:25;98620;;;18.7;84.34
44127;BME280;29786;50.798;7.302;2023-04-28T16:52:36;98640;;;18.41;95.01
44127;BME280;29786;50.798;7.302;2023-04-28T16:57:32;98640;;;20.25;76.66
44127;BME280;29786;50.798;7.302;2023-04-28T17:02:29;98670;;;21.04;70.27
44127;BME280;29786;50.798;7.302;2023-04-28T17:07:25;98680;;;19.43;78.5
44127;BME280;29786;50.798;7.302;2023-04-28T17:13:36;98690;;;18.76;87.71
44127;BME280;29786;50.798;7.302;2023-04-28T17:18:33;98700;;;17.77;91.44
44127;BME280;29786;50.798;7.302;2023-04-28T17:23:29;98700;;;18.77;82.19
44127;BME280;29786;50.798;7.302;2023-04-28T17:28:26;98710;;;17.95;86.77
44127;BME280;29786;50.798;7.302;2023-04-28T17:34:36;98730;;;16.46;100
44127;BME280;29786;50.798;7.302;2023-04-28T17:39:33;98720;;;15.66;100
44127;BME280;29786;50.798;7.302;2023-04-28T17:44:29;98740;;;15.56;100
44127;BME280;29786;50.798;7.302;2023-04-28T17:49:26;98740;;;15.56;100
44127;BME280;29786;50.798;7.302;2023-04-28T17:55:37;98740;;;15.25;100
44127;BME280;29786;50.798;7.302;2023-04-28T18:00:33;98750;;;15.13;100
44127;BME280;29786;50.798;7.302;2023-04-28T18:05:30;98750;;;15.09;100
44127;BME280;29786;50.798;7.302;2023-04-28T18:10:26;98750;;;14.96;100
44127;BME280;29786;50.798;7.302;2023-04-28T18:16:37;98770;;;14.71;100
44127;BME280;29786;50.798;7.302;2023-04-28T18:21:33;98780;;;14.66;100
44127;BME280;29786;50.798;7.302;2023-04-28T18:26:30;98790;;;14.56;100
44127;BME280;29786;50.798;7.302;2023-04-28T18:31:26;98780;;;14.53;100
44127;BME280;29786;50.798;7.302;2023-04-28T18:36:32;98780;;;14.44;100
44127;BME280;29786;50.798;7.302;2023-04-28T18:41:28;98780;;;14.4;100
44127;BME280;29786;50.798;7.302;2023-04-28T18:47:38;98790;;;14.44;100
44127;BME280;29786;50.798;7.302;2023-04-28T18:52:35;98790;;;14.44;100
44127;BME280;29786;50.798;7.302;2023-04-28T18:57:31;98800;;;14.47;100
44127;BME280;29786;50.798;7.302;2023-04-28T19:02:28;98790;;;14.47;100
44127;BME280;29786;50.798;7.302;2023-04-28T19:08:39;98790;;;14.5;100
44127;BME280;29786;50.798;7.302;2023-04-28T19:13:35;98800;;;14.47;100
44127;BME280;29786;50.798;7.302;2023-04-28T19:18:32;98790;;;14.34;100
44127;BME280;29786;50.798;7.302;2023-04-28T19:23:28;98820;;;14.45;100
44127;BME280;29786;50.798;7.302;2023-04-28T19:29:39;98820;;;14.46;100
44127;BME280;29786;50.798;7.302;2023-04-28T19:34:35;98830;;;14.39;100
44127;BME280;29786;50.798;7.302;2023-04-28T19:39:32;98810;;;14.21;100
44127;BME280;29786;50.798;7.302;2023-04-28T19:44:29;98830;;;14.31;100
44127;BME280;29786;50.798;7.302;2023-04-28T19:49:25;98840;;;14.27;100
44127;BME280;29786;50.798;7.302;2023-04-28T19:55:36;98840;;;14.32;100
44127;BME280;29786;50.798;7.302;2023-04-28T20:00:32;98820;;;14.05;100
44127;BME280;29786;50.798;7.302;2023-04-28T20:05:29;98840;;;14.2;100
44127;BME280;29786;50.798;7.302;2023-04-28T20:10:25;98840;;;14.16;100
44127;BME280;29786;50.798;7.302;2023-04-28T20:16:36;98850;;;14.14;100
44127;BME280;29786;50.798;7.302;2023-04-28T20:26:29;98840;;;14.09;100
44127;BME280;29786;50.798;7.302;2023-04-28T20:31:25;98840;;;14.11;100
44127;BME280;29786;50.798;7.302;2023-04-28T20:35:08;98840;;;14.14;100
44127;BME280;29786;50.798;7.302;2023-04-28T20:37:36;98840;;;14.07;100
44127;BME280;29786;50.798;7.302;2023-04-28T20:42:33;98840;;;14.1;100
44127;BME280;29786;50.798;7.302;2023-04-28T20:47:29;98840;;;14.09;100
44127;BME280;29786;50.798;7.302;2023-04-28T20:58:36;98850;;;14.07;100
44127;BME280;29786;50.798;7.302;2023-04-28T21:03:33;98850;;;14.06;100
44127;BME280;29786;50.798;7.302;2023-04-28T21:08:29;98850;;;13.98;100
44127;BME280;29786;50.798;7.302;2023-04-28T21:13:26;98850;;;13.96;100
44127;BME280;29786;50.798;7.302;2023-04-28T21:19:37;98850;;;13.79;100
44127;BME280;29786;50.798;7.302;2023-04-28T21:24:33;98850;;;13.76;100
44127;BME280;29786;50.798;7.302;2023-04-28T21:29:30;98850;;;13.8;100
44127;BME280;29786;50.798;7.302;2023-04-28T21:34:26;98850;;;13.74;100
44127;BME280;29786;50.798;7.302;2023-04-28T21:40:37;98850;;;13.7;100
44127;BME280;29786;50.798;7.302;2023-04-28T21:45:34;98860;;;13.62;100
44127;BME280;29786;50.798;7.302;2023-04-28T21:50:30;98860;;;13.44;100
44127;BME280;29786;50.798;7.302;2023-04-28T21:55:27;98870;;;12.86;100
44127;BME280;29786;50.798;7.302;2023-04-28T22:01:37;98870;;;12.55;100
44127;BME280;29786;50.798;7.302;2023-04-28T22:06:34;98870;;;12.48;100
44127;BME280;29786;50.798;7.302;2023-04-28T22:11:30;98870;;;12.44;100
44127;BME280;29786;50.798;7.302;2023-04-28T22:16:27;98860;;;12.55;100
44127;BME280;29786;50.798;7.302;2023-04-28T22:22:37;98860;;;12.54;100
44127;BME280;29786;50.798;7.302;2023-04-28T22:27:34;98880;;;12.57;100
44127;BME280;29786;50.798;7.302;2023-04-28T22:32:30;98880;;;12.33;100
44127;BME280;29786;50.798;7.302;2023-04-28T22:37:27;98890;;;12.1;100
44127;BME280;29786;50.798;7.302;2023-04-28T22:43:38;98880;;;11.84;100
44127;BME280;29786;50.798;7.302;2023-04-28T22:48:34;98880;;;11.69;100
44127;BME280;29786;50.798;7.302;2023-04-28T22:53:31;98890;;;11.72;100
44127;BME280;29786;50.798;7.302;2023-04-28T22:58:27;98890;;;11.68;100
44127;BME280;29786;50.798;7.302;2023-04-28T23:04:38;98890;;;11.75;100
44127;BME280;29786;50.798;7.302;2023-04-28T23:09:35;98890;;;11.85;100
44127;BME280;29786;50.798;7.302;2023-04-28T23:14:31;98890;;;11.88;100
44127;BME280;29786;50.798;7.302;2023-04-28T23:19:28;98890;;;11.88;100
44127;BME280;29786;50.798;7.302;2023-04-28T23:24:24;98880;;;11.85;100
44127;BME280;29786;50.798;7.302;2023-04-28T23:30:35;98890;;;11.94;100
44127;BME280;29786;50.798;7.302;2023-04-28T23:35:31;98900;;;11.86;100
44127;BME280;29786;50.798;7.302;2023-04-28T23:40:28;98900;;;11.83;100
44127;BME280;29786;50.798;7.302;2023-04-28T23:45:24;98900;;;11.7;100
44127;BME280;29786;50.798;7.302;2023-04-28T23:51:35;98900;;;11.59;100
44127;BME280;29786;50.798;7.302;2023-04-28T23:56:32;98890;;;11.44;100
